This is the latest recevied weather packets stored in our database for station/object N8HKU-5. If no packets are shown the sender has not sent any weather packets the latest 1 day(s).
| Time | Temp. | Humidity | Pressure | Rain* | Wind** | Luminosity | Snow |
|---|---|---|---|---|---|---|---|
| 1778005953 | 11.11° C | 75% | 1005.8 hPa | 0 mm | 0 m/s | - | - |
| 1778005353 | 11.11° C | 74% | 1005.8 hPa | 0 mm | 0.45 m/s, 225° | - | - |
| 1778004753 | 11.11° C | 76% | 1005.7 hPa | 0 mm | 0.45 m/s, 265° | - | - |
| 1778004153 | 11.11° C | 74% | 1005.6 hPa | 0 mm | 0.45 m/s, 271° | - | - |
| 1778003553 | 11.67° C | 75% | 1005.3 hPa | 0.25 mm | 0 m/s | - | - |
| 1778002953 | 11.67° C | 77% | 1005.3 hPa | 0.51 mm | 0 m/s | - | - |
| 1778002353 | 11.11° C | 79% | 1005.3 hPa | 0.51 mm | 0 m/s | - | - |
| 1778001753 | 11.11° C | 83% | 1005 hPa | 0.51 mm | 0 m/s | - | - |
| 1778001153 | 10.56° C | 81% | 1005.3 hPa | 0.51 mm | 0.45 m/s, 293° | - | - |
| 1778000553 | 10.56° C | 79% | 1005.1 hPa | 0.51 mm | 0 m/s | - | - |
| 1777999953 | 11.11° C | 77% | 1005.1 hPa | 0.25 mm | 0 m/s | - | - |
| 1777999354 | 11.11° C | 77% | 1005.2 hPa | 0 mm | 0 m/s | - | - |
| 1777998753 | 11.67° C | 74% | 1005.2 hPa | 0 mm | 0.45 m/s, 289° | - | - |
| 1777998153 | 12.22° C | 72% | 1005.4 hPa | 0 mm | 0 m/s | - | - |
| 1777997553 | 12.22° C | 68% | 1005.4 hPa | 0 mm | 0.89 m/s, 280° | - | - |
| 1777996953 | 13.33° C | 64% | 1005.4 hPa | 0 mm | 0.45 m/s, 265° | - | - |
| 1777996353 | 13.89° C | 63% | 1005.2 hPa | 0 mm | 0 m/s | - | - |
| 1777995754 | 13.89° C | 59% | 1004.9 hPa | 0 mm | 0 m/s | - | - |
| 1777995153 | 13.89° C | 60% | 1004.3 hPa | 0 mm | 0 m/s | - | - |
| 1777994553 | 13.89° C | 59% | 1004.2 hPa | 0 mm | 0 m/s | - | - |
| 1777993953 | 13.89° C | 57% | 1004.3 hPa | 0 mm | 0 m/s | - | - |
| 1777993353 | 14.44° C | 56% | 1004 hPa | 0 mm | 0 m/s | - | - |
| 1777992754 | 14.44° C | 54% | 1003.9 hPa | 0 mm | 0 m/s | - | - |
| 1777992154 | 14.44° C | 55% | 1003.8 hPa | 0 mm | 0 m/s | - | - |
| 1777991554 | 15° C | 54% | 1003.8 hPa | 0 mm | 0 m/s | - | - |
* Rain latest hour (hover to see other rain measurements)
** Current wind speed in m/s (hover to see current wind gust speed)